createdAt,value
2022-08-18T00:02:11.485Z,98718.00
2022-08-18T00:04:49.749Z,98715.31
2022-08-18T00:07:25.870Z,98715.59
2022-08-18T00:10:01.300Z,98707.75
2022-08-18T00:12:43.234Z,98718.56
2022-08-18T00:15:16.539Z,98711.31
2022-08-18T00:17:48.529Z,98711.88
2022-08-18T00:20:23.970Z,98721.84
2022-08-18T00:22:58.635Z,98723.19
2022-08-18T00:25:30.221Z,98721.81
2022-08-18T00:28:02.225Z,98725.06
2022-08-18T00:30:34.457Z,98731.28
2022-08-18T00:33:09.082Z,98721.56
2022-08-18T00:35:40.864Z,98728.34
2022-08-18T00:38:24.786Z,98722.66
2022-08-18T00:40:57.075Z,98727.81
2022-08-18T00:43:35.951Z,98719.97
2022-08-18T00:46:11.664Z,98717.53
2022-08-18T00:48:48.838Z,98720.00
2022-08-18T00:51:46.806Z,98725.41
2022-08-18T00:54:26.477Z,98733.78
2022-08-18T00:57:06.650Z,98729.44
2022-08-18T00:59:50.063Z,98724.03
2022-08-18T01:02:31.814Z,98732.94
2022-08-18T01:05:09.119Z,98726.19
2022-08-18T01:07:46.602Z,98732.16
2022-08-18T01:10:22.549Z,98728.34
2022-08-18T01:12:57.774Z,98716.22
2022-08-18T01:15:30.529Z,98714.06
2022-08-18T01:18:29.848Z,98723.50
2022-08-18T01:21:33.785Z,98725.94
2022-08-18T01:24:08.968Z,98727.00
2022-08-18T01:26:46.457Z,98721.34
2022-08-18T01:29:19.754Z,98718.91
2022-08-18T01:31:57.169Z,98721.91
2022-08-18T01:34:31.548Z,98717.03
2022-08-18T01:37:06.541Z,98714.59
2022-08-18T01:41:21.240Z,98718.91
2022-08-18T01:42:33.583Z,98716.75
2022-08-18T01:45:08.372Z,98705.69
2022-08-18T01:47:47.110Z,98709.75
2022-08-18T01:50:20.143Z,98710.28
2022-08-18T01:52:53.606Z,98714.31
2022-08-18T01:55:28.545Z,98710.84
2022-08-18T01:58:01.589Z,98707.84
2022-08-18T02:00:33.806Z,98710.28
2022-08-18T02:03:11.375Z,98701.88
2022-08-18T02:05:49.722Z,98700.53
2022-08-18T02:08:22.135Z,98697.28
2022-08-18T02:11:03.529Z,98704.03
2022-08-18T02:13:35.561Z,98704.56
2022-08-18T02:16:07.889Z,98711.56
2022-08-18T02:18:48.280Z,98713.72
2022-08-18T02:21:20.778Z,98726.34
2022-08-18T02:23:54.423Z,98723.94
2022-08-18T02:26:26.066Z,98731.19
2022-08-18T02:28:57.706Z,98723.66
2022-08-18T02:31:29.342Z,98729.03
2022-08-18T02:34:01.096Z,98733.88
2022-08-18T02:36:32.687Z,98732.53
2022-08-18T02:39:04.402Z,98730.38
2022-08-18T02:41:36.632Z,98723.34
2022-08-18T02:44:09.342Z,98719.84
2022-08-18T02:46:41.004Z,98722.53
2022-08-18T02:49:12.787Z,98716.63
2022-08-18T02:51:44.419Z,98713.63
2022-08-18T02:54:16.039Z,98714.44
2022-08-18T02:56:47.940Z,98719.00
2022-08-18T02:59:26.424Z,98720.38
2022-08-18T03:01:58.646Z,98727.88
2022-08-18T03:04:31.247Z,98716.56
2022-08-18T03:07:05.359Z,98716.28
2022-08-18T03:09:37.494Z,98716.53
2022-08-18T03:12:09.733Z,98717.91
2022-08-18T03:14:44.194Z,98724.34
2022-08-18T03:17:15.873Z,98723.78
2022-08-18T03:19:47.981Z,98731.06
2022-08-18T03:22:28.300Z,98728.09
2022-08-18T03:25:05.623Z,98732.06
2022-08-18T03:27:37.227Z,98731.53
2022-08-18T03:30:11.264Z,98730.97
2022-08-18T03:32:45.918Z,98730.44
2022-08-18T03:35:17.823Z,98725.59
2022-08-18T03:37:50.695Z,98728.53
2022-08-18T03:40:22.404Z,98726.09
2022-08-18T03:42:54.275Z,98733.63
2022-08-18T03:45:28.567Z,98736.03
2022-08-18T03:48:01.224Z,98735.50
2022-08-18T03:50:32.946Z,98736.28
2022-08-18T03:53:07.409Z,98737.06
2022-08-18T03:55:42.137Z,98738.13
2022-08-18T03:58:15.509Z,98723.31
2022-08-18T04:00:47.389Z,98727.34
2022-08-18T04:03:19.538Z,98732.72
2022-08-18T04:05:51.122Z,98728.94
2022-08-18T04:08:22.770Z,98736.75
2022-08-18T04:11:05.650Z,98740.78
2022-08-18T04:13:39.339Z,98741.34
2022-08-18T04:16:11.648Z,98737.03
2022-08-18T04:18:43.548Z,98738.41
2022-08-18T04:21:15.141Z,98745.38
2022-08-18T04:23:46.797Z,98738.94
2022-08-18T04:26:20.013Z,98749.72
2022-08-18T04:28:51.688Z,98750.28
2022-08-18T04:31:24.798Z,98742.75
2022-08-18T04:34:03.703Z,98749.22
2022-08-18T04:36:36.380Z,98743.31
2022-08-18T04:39:10.079Z,98747.13
2022-08-18T04:41:47.510Z,98739.88
2022-08-18T04:44:21.736Z,98744.81
2022-08-18T04:46:54.011Z,98738.41
2022-08-18T04:49:26.347Z,98744.09
2022-08-18T04:52:39.314Z,98747.09
2022-08-18T04:55:10.357Z,98744.97
2022-08-18T04:57:42.841Z,98743.63
2022-08-18T05:00:14.746Z,98753.66
2022-08-18T05:02:46.571Z,98753.44
2022-08-18T05:05:18.346Z,98752.63
2022-08-18T05:07:49.931Z,98746.69
2022-08-18T05:10:21.537Z,98755.34
2022-08-18T05:12:53.110Z,98752.91
2022-08-18T05:15:24.800Z,98747.00
2022-08-18T05:17:56.686Z,98741.28
2022-08-18T05:20:33.390Z,98743.44
2022-08-18T05:23:07.272Z,98741.28
2022-08-18T05:25:40.084Z,98746.66
2022-08-18T05:28:13.471Z,98766.84
2022-08-18T05:30:45.183Z,98752.78
2022-08-18T05:33:17.230Z,98753.78
2022-08-18T05:35:55.016Z,98753.94
2022-08-18T05:38:42.432Z,98762.19
2022-08-18T05:41:28.091Z,98756.94
2022-08-18T05:44:01.474Z,98753.56
2022-08-18T05:46:50.095Z,98757.94
2022-08-18T05:49:24.405Z,98746.66
2022-08-18T05:52:01.046Z,98748.06
2022-08-18T05:55:03.786Z,98746.75
2022-08-18T05:57:43.454Z,98747.31
2022-08-18T06:00:21.221Z,98748.16
2022-08-18T06:03:45.505Z,98749.50
2022-08-18T06:06:24.140Z,98754.19
2022-08-18T06:09:18.343Z,98758.84
2022-08-18T06:11:50.470Z,98753.69
2022-08-18T06:14:22.639Z,98750.19
2022-08-18T06:17:21.666Z,98750.72
2022-08-18T06:20:17.524Z,98756.41
2022-08-18T06:23:06.270Z,98757.78
2022-08-18T06:25:58.015Z,98766.47
2022-08-18T06:29:14.783Z,98762.97
2022-08-18T06:32:05.385Z,98765.66
2022-08-18T06:35:04.942Z,98768.38
2022-08-18T06:38:03.703Z,98771.06
2022-08-18T06:40:35.542Z,98768.59
2022-08-18T06:43:11.894Z,98773.72
2022-08-18T06:45:48.530Z,98769.13
2022-08-18T06:48:50.905Z,98774.03
2022-08-18T06:51:27.594Z,98771.38
2022-08-18T06:54:24.561Z,98773.78
2022-08-18T06:56:57.774Z,98778.34
2022-08-18T06:59:34.704Z,98775.91
2022-08-18T07:02:21.285Z,98776.72
2022-08-18T07:05:05.894Z,98779.69
2022-08-18T07:07:40.875Z,98781.50
2022-08-18T07:10:15.983Z,98784.19
2022-08-18T07:12:47.573Z,98790.13
2022-08-18T07:15:24.419Z,98786.53
2022-08-18T07:18:05.329Z,98787.84
2022-08-18T07:20:54.133Z,98792.16
2022-08-18T07:23:34.724Z,98794.56
2022-08-18T07:26:12.055Z,98795.44
2022-08-18T07:28:52.974Z,98800.88
2022-08-18T07:31:53.042Z,98797.94
2022-08-18T07:34:37.294Z,98790.66
2022-08-18T07:37:28.607Z,98796.31
2022-08-18T07:40:27.490Z,98799.59
2022-08-18T07:43:03.426Z,98796.56
2022-08-18T07:45:42.827Z,98809.25
2022-08-18T07:48:38.170Z,98808.97
2022-08-18T07:51:37.549Z,98811.34
2022-08-18T07:54:48.953Z,98809.38
2022-08-18T07:57:42.911Z,98810.69
2022-08-18T08:00:55.318Z,98801.88
2022-08-18T08:03:50.317Z,98800.00
2022-08-18T08:07:12.886Z,98793.06
2022-08-18T08:09:58.403Z,98791.06
2022-08-18T08:13:11.125Z,98789.13
2022-08-18T08:16:16.740Z,98791.16
2022-08-18T08:19:16.476Z,98798.94
2022-08-18T08:22:04.695Z,98785.84
2022-08-18T08:24:47.969Z,98780.03
2022-08-18T08:27:56.696Z,98778.91
2022-08-18T08:30:31.974Z,98774.66
2022-08-18T08:33:18.071Z,98781.13
2022-08-18T08:35:58.804Z,98770.25
2022-08-18T08:38:47.097Z,98755.38
2022-08-18T08:41:26.661Z,98754.69
2022-08-18T08:44:24.817Z,98757.25
2022-08-18T08:47:02.583Z,98748.47
2022-08-18T08:50:00.538Z,98741.91
2022-08-18T08:52:44.699Z,98756.94
2022-08-18T08:55:25.412Z,98746.72
2022-08-18T08:58:15.508Z,98737.38
2022-08-18T09:00:49.725Z,98730.78
2022-08-18T09:04:00.883Z,98721.53
2022-08-18T09:06:32.522Z,98709.56
2022-08-18T09:09:19.075Z,98704.88
2022-08-18T09:12:31.994Z,98706.84
2022-08-18T09:15:18.307Z,98696.69
2022-08-18T09:17:58.863Z,98689.63
2022-08-18T09:21:16.033Z,98669.84
2022-08-18T09:23:53.179Z,98668.34
2022-08-18T09:26:42.568Z,98658.81
2022-08-18T09:29:37.153Z,98653.31
2022-08-18T09:32:18.695Z,98647.03
2022-08-18T09:35:23.138Z,98644.69
2022-08-18T09:38:30.325Z,98637.47
2022-08-18T09:41:35.202Z,98633.84
2022-08-18T09:44:21.517Z,98630.16
2022-08-18T09:47:07.829Z,98614.31
2022-08-18T09:49:47.969Z,98613.84
2022-08-18T09:52:25.431Z,98614.16
2022-08-18T09:54:57.429Z,98619.81
2022-08-18T09:57:42.101Z,98619.22
2022-08-18T10:00:33.509Z,98618.25
2022-08-18T10:03:13.923Z,98621.34
2022-08-18T10:06:07.098Z,98615.72
2022-08-18T10:09:01.929Z,98619.19
2022-08-18T10:11:58.297Z,98616.44
2022-08-18T10:14:37.039Z,98609.44
2022-08-18T10:17:36.333Z,98601.69
2022-08-18T10:20:23.900Z,98589.91
2022-08-18T10:22:58.203Z,98585.47
2022-08-18T10:25:33.875Z,98588.44
2022-08-18T10:28:10.137Z,98593.34
2022-08-18T10:30:57.302Z,98591.25
2022-08-18T10:34:17.226Z,98591.22
2022-08-18T10:36:54.940Z,98582.81
2022-08-18T10:39:41.220Z,98575.72
2022-08-18T10:42:31.525Z,98582.13
2022-08-18T10:45:06.955Z,98580.19
2022-08-18T10:47:38.688Z,98566.56
2022-08-18T10:50:26.748Z,98570.44
2022-08-18T10:53:17.006Z,98579.50
2022-08-18T10:56:26.514Z,98591.94
2022-08-18T10:59:19.487Z,98593.78
2022-08-18T11:02:20.304Z,98588.88
2022-08-18T11:04:58.985Z,98581.09
2022-08-18T11:07:34.392Z,98589.44
2022-08-18T11:10:57.489Z,98594.00
2022-08-18T11:13:49.977Z,98604.88
2022-08-18T11:16:42.922Z,98594.47
2022-08-18T11:19:22.684Z,98588.63
2022-08-18T11:21:54.836Z,98596.50
2022-08-18T11:24:31.577Z,98596.03
2022-08-18T11:27:22.689Z,98593.16
2022-08-18T11:30:01.041Z,98593.22
2022-08-18T11:32:44.226Z,98595.31
2022-08-18T11:35:32.170Z,98587.69
2022-08-18T11:38:13.579Z,98584.19
2022-08-18T11:41:19.927Z,98589.06
2022-08-18T11:43:57.946Z,98590.13
2022-08-18T11:46:38.876Z,98575.13
2022-08-18T11:49:30.079Z,98571.47
2022-08-18T11:52:32.890Z,98570.94
2022-08-18T11:55:24.552Z,98566.28
2022-08-18T11:57:59.549Z,98568.44
2022-08-18T12:00:42.722Z,98562.06
2022-08-18T12:03:41.242Z,98566.56
2022-08-18T12:06:27.900Z,98559.13
2022-08-18T12:09:07.511Z,98563.38
2022-08-18T12:11:53.760Z,98562.03
2022-08-18T12:14:35.347Z,98561.44
2022-08-18T12:17:14.049Z,98544.63
2022-08-18T12:19:48.253Z,98542.94
2022-08-18T12:22:28.202Z,98550.59
2022-08-18T12:24:59.918Z,98536.06
2022-08-18T12:27:33.758Z,98545.56
2022-08-18T12:30:07.456Z,98533.34
2022-08-18T12:32:50.513Z,98531.84
2022-08-18T12:35:22.741Z,98534.78
2022-08-18T12:38:03.158Z,98524.75
2022-08-18T12:40:43.127Z,98515.06
2022-08-18T12:43:14.791Z,98513.13
2022-08-18T12:45:46.661Z,98501.66
2022-08-18T12:48:18.753Z,98501.19
2022-08-18T12:50:58.598Z,98485.06
2022-08-18T12:53:38.263Z,98488.13
2022-08-18T12:56:30.401Z,98475.50
2022-08-18T12:59:05.218Z,98490.28
2022-08-18T13:01:41.568Z,98481.47
2022-08-18T13:04:15.688Z,98474.97
2022-08-18T13:06:59.243Z,98471.41
2022-08-18T13:09:53.576Z,98478.25
2022-08-18T13:12:26.179Z,98477.38
2022-08-18T13:14:59.206Z,98477.47
2022-08-18T13:17:33.674Z,98468.44
2022-08-18T13:20:10.711Z,98469.72
2022-08-18T13:22:45.639Z,98468.25
2022-08-18T13:25:32.748Z,98463.56
2022-08-18T13:28:09.550Z,98450.84
2022-08-18T13:30:46.263Z,98445.84
2022-08-18T13:33:53.614Z,98455.09
2022-08-18T13:36:12.615Z,98458.75
2022-08-18T13:38:44.352Z,98464.81
2022-08-18T13:41:16.793Z,98454.31
2022-08-18T13:43:48.610Z,98449.72
2022-08-18T13:46:24.077Z,98448.03
2022-08-18T13:49:02.288Z,98442.78
2022-08-18T13:51:35.489Z,98441.28
2022-08-18T13:54:29.700Z,98438.91
2022-08-18T13:57:04.382Z,98433.97
2022-08-18T13:59:35.971Z,98429.94
2022-08-18T14:02:10.585Z,98430.16
2022-08-18T14:04:42.233Z,98432.69
2022-08-18T14:07:19.320Z,98431.31
2022-08-18T14:10:04.999Z,98429.81
2022-08-18T14:12:37.862Z,98419.75
2022-08-18T14:15:16.576Z,98426.47
2022-08-18T14:17:48.362Z,98423.19
2022-08-18T14:20:38.959Z,98419.00
2022-08-18T14:23:38.445Z,98431.78
2022-08-18T14:26:34.211Z,98452.78
2022-08-18T14:29:05.827Z,98450.28
2022-08-18T14:31:37.580Z,98438.19
2022-08-18T14:34:09.737Z,98441.81
2022-08-18T14:36:42.410Z,98442.75
2022-08-18T14:39:15.668Z,98437.47
2022-08-18T14:41:54.653Z,98434.16
2022-08-18T14:44:31.923Z,98429.59
2022-08-18T14:47:04.025Z,98436.69
2022-08-18T14:49:36.178Z,98420.91
2022-08-18T14:52:19.593Z,98422.88
2022-08-18T14:54:51.413Z,98425.72
2022-08-18T14:57:26.470Z,98417.03
2022-08-18T14:59:58.669Z,98423.00
2022-08-18T15:02:30.566Z,98415.69
2022-08-18T15:05:02.440Z,98414.53
2022-08-18T15:07:52.461Z,98415.91
2022-08-18T15:10:27.934Z,98415.91
2022-08-18T15:13:02.925Z,98422.41
2022-08-18T15:15:50.987Z,98421.84
2022-08-18T15:18:23.975Z,98408.38
2022-08-18T15:21:19.607Z,98410.44
2022-08-18T15:24:26.535Z,98402.78
2022-08-18T15:27:05.678Z,98393.03
2022-08-18T15:29:41.486Z,98388.59
2022-08-18T15:32:17.533Z,98390.56
2022-08-18T15:34:51.412Z,98379.50
2022-08-18T15:37:24.284Z,98377.44
2022-08-18T15:40:21.875Z,98380.53
2022-08-18T15:43:10.528Z,98385.22
2022-08-18T15:45:58.007Z,98378.72
2022-08-18T15:48:30.074Z,98364.78
2022-08-18T15:51:11.501Z,98358.41
2022-08-18T15:53:45.750Z,98348.59
2022-08-18T15:56:21.075Z,98352.59
2022-08-18T15:58:52.867Z,98350.88
2022-08-18T16:01:30.223Z,98339.22
2022-08-18T16:04:05.741Z,98336.59
2022-08-18T16:06:46.331Z,98331.81
2022-08-18T16:09:17.933Z,98328.50
2022-08-18T16:11:50.001Z,98333.09
2022-08-18T16:14:21.580Z,98331.72
2022-08-18T16:16:55.237Z,98326.00
2022-08-18T16:19:26.719Z,98325.88
2022-08-18T16:22:06.287Z,98335.13
2022-08-18T16:24:37.947Z,98315.84
2022-08-18T16:27:09.595Z,98321.31
2022-08-18T16:29:41.254Z,98314.56
2022-08-18T16:32:16.173Z,98319.25
2022-08-18T16:34:49.067Z,98314.13
2022-08-18T16:37:20.694Z,98314.69
2022-08-18T16:39:52.852Z,98321.16
2022-08-18T16:42:24.825Z,98305.44
2022-08-18T16:44:56.397Z,98303.72
2022-08-18T16:47:28.336Z,98302.94
2022-08-18T16:50:00.181Z,98305.91
2022-08-18T16:52:33.538Z,98297.22
2022-08-18T16:55:07.660Z,98301.41
2022-08-18T16:58:02.296Z,98297.91
2022-08-18T17:00:54.852Z,98306.31
2022-08-18T17:03:45.223Z,98301.53
2022-08-18T17:06:18.699Z,98300.75
2022-08-18T17:08:50.421Z,98306.22
2022-08-18T17:11:23.663Z,98302.91
2022-08-18T17:13:59.524Z,98306.25
2022-08-18T17:16:31.212Z,98311.28
2022-08-18T17:19:05.927Z,98304.88
2022-08-18T17:21:38.006Z,98306.28
2022-08-18T17:24:11.345Z,98302.91
2022-08-18T17:26:59.716Z,98287.53
2022-08-18T17:29:54.075Z,98282.75
2022-08-18T17:32:44.146Z,98284.53
2022-08-18T17:35:29.073Z,98282.38
2022-08-18T17:38:08.804Z,98281.44
2022-08-18T17:40:46.423Z,98284.88
2022-08-18T17:43:27.893Z,98282.66
2022-08-18T17:46:18.509Z,98269.19
2022-08-18T17:48:57.790Z,98267.13
2022-08-18T17:51:35.376Z,98271.66
2022-08-18T17:54:39.437Z,98273.47
2022-08-18T17:57:23.804Z,98279.59
2022-08-18T18:00:09.677Z,98274.34
2022-08-18T18:02:45.514Z,98276.94
2022-08-18T18:05:20.133Z,98276.38
2022-08-18T18:07:51.907Z,98269.16
2022-08-18T18:10:30.102Z,98270.03
2022-08-18T18:13:32.414Z,98265.09
2022-08-18T18:16:19.871Z,98257.88
2022-08-18T18:19:05.816Z,98250.81
2022-08-18T18:22:00.970Z,98243.63
2022-08-18T18:24:32.693Z,98243.00
2022-08-18T18:27:24.981Z,98234.88
2022-08-18T18:30:07.609Z,98236.22
2022-08-18T18:32:59.090Z,98220.84
2022-08-18T18:35:54.947Z,98222.63
2022-08-18T18:38:31.360Z,98216.22
2022-08-18T18:41:20.451Z,98209.03
2022-08-18T18:44:06.238Z,98200.72
2022-08-18T18:47:01.204Z,98195.91
2022-08-18T18:49:39.980Z,98206.03
2022-08-18T18:52:25.460Z,98204.28
2022-08-18T18:55:19.315Z,98209.44
2022-08-18T18:58:15.944Z,98201.13
2022-08-18T19:00:53.833Z,98201.44
2022-08-18T19:03:29.101Z,98200.16
2022-08-18T19:06:03.634Z,98200.53
2022-08-18T19:08:35.915Z,98204.69
2022-08-18T19:11:26.701Z,98204.88
2022-08-18T19:14:07.576Z,98196.91
2022-08-18T19:16:59.724Z,98200.94
2022-08-18T19:19:39.372Z,98200.63
2022-08-18T19:22:19.241Z,98199.34
2022-08-18T19:25:07.323Z,98204.34
2022-08-18T19:28:02.609Z,98205.16
2022-08-18T19:30:40.622Z,98206.59
2022-08-18T19:33:24.786Z,98201.81
2022-08-18T19:36:08.334Z,98200.00
2022-08-18T19:39:11.287Z,98208.06
2022-08-18T19:41:52.813Z,98212.09
2022-08-18T19:44:29.219Z,98209.41
2022-08-18T19:47:28.003Z,98222.88
2022-08-18T19:49:59.897Z,98222.56
2022-08-18T19:52:46.035Z,98221.13
2022-08-18T19:55:40.499Z,98231.41
2022-08-18T19:59:04.811Z,98238.78
2022-08-18T20:01:52.896Z,98238.75
2022-08-18T20:04:54.130Z,98261.69
2022-08-18T20:07:31.492Z,98266.31
2022-08-18T20:10:30.941Z,98267.13
2022-08-18T20:13:32.608Z,98267.28
2022-08-18T20:16:12.915Z,98261.03
2022-08-18T20:18:49.025Z,98265.16
2022-08-18T20:21:20.537Z,98271.53
2022-08-18T20:24:05.026Z,98283.84
2022-08-18T20:26:39.139Z,98281.75
2022-08-18T20:29:18.993Z,98279.16
2022-08-18T20:32:01.735Z,98284.09
2022-08-18T20:34:35.442Z,98281.84
2022-08-18T20:37:08.351Z,98287.88
2022-08-18T20:39:46.898Z,98291.03
2022-08-18T20:42:42.288Z,98293.88
2022-08-18T20:45:28.756Z,98303.28
2022-08-18T20:48:12.548Z,98315.66
2022-08-18T20:50:54.218Z,98308.69
2022-08-18T20:53:55.324Z,98313.78
2022-08-18T20:56:37.438Z,98316.59
2022-08-18T20:59:20.256Z,98325.66
2022-08-18T21:01:58.275Z,98330.94
2022-08-18T21:04:59.118Z,98333.06
2022-08-18T21:07:38.941Z,98337.09
2022-08-18T21:10:19.892Z,98345.69
2022-08-18T21:12:57.149Z,98345.53
2022-08-18T21:15:35.543Z,98361.81
2022-08-18T21:18:24.494Z,98352.97
2022-08-18T21:20:58.164Z,98375.25
2022-08-18T21:23:34.513Z,98378.06
2022-08-18T21:26:15.768Z,98381.09
2022-08-18T21:28:51.893Z,98381.19
2022-08-18T21:31:45.373Z,98396.84
2022-08-18T21:34:35.602Z,98391.03
2022-08-18T21:37:10.456Z,98392.13
2022-08-18T21:40:01.256Z,98394.13
2022-08-18T21:42:39.213Z,98396.63
2022-08-18T21:45:23.221Z,98394.22
2022-08-18T21:47:58.180Z,98395.88
2022-08-18T21:50:34.816Z,98402.00
2022-08-18T21:53:12.444Z,98411.00
2022-08-18T21:55:47.327Z,98416.50
2022-08-18T21:58:32.666Z,98404.03
2022-08-18T22:01:11.932Z,98399.19
2022-08-18T22:03:59.478Z,98400.28
2022-08-18T22:06:40.587Z,98401.69
2022-08-18T22:09:30.298Z,98408.00
2022-08-18T22:12:52.047Z,98408.66
2022-08-18T22:15:40.912Z,98410.34
2022-08-18T22:18:18.306Z,98404.69
2022-08-18T22:20:52.954Z,98415.88
2022-08-18T22:24:06.185Z,98419.25
2022-08-18T22:26:38.599Z,98413.38
2022-08-18T22:29:10.130Z,98410.41
2022-08-18T22:31:48.288Z,98416.91
2022-08-18T22:34:28.198Z,98430.28
2022-08-18T22:37:07.774Z,98407.41
2022-08-18T22:39:46.127Z,98409.78
2022-08-18T22:42:20.612Z,98406.00
2022-08-18T22:44:53.205Z,98410.91
2022-08-18T22:47:25.044Z,98413.91
2022-08-18T22:49:57.355Z,98419.59
2022-08-18T22:52:36.757Z,98426.97
2022-08-18T22:55:10.783Z,98425.28
2022-08-18T22:57:42.992Z,98428.56
2022-08-18T23:00:19.278Z,98437.75
2022-08-18T23:02:50.902Z,98435.94
2022-08-18T23:05:23.276Z,98425.38
2022-08-18T23:07:54.982Z,98430.88
2022-08-18T23:10:26.694Z,98431.16
2022-08-18T23:13:02.277Z,98423.66
2022-08-18T23:15:43.634Z,98428.75
2022-08-18T23:18:19.767Z,98430.69
2022-08-18T23:20:59.057Z,98440.50
2022-08-18T23:23:31.901Z,98434.63
2022-08-18T23:26:03.589Z,98431.09
2022-08-18T23:28:35.162Z,98428.19
2022-08-18T23:31:06.830Z,98435.16
2022-08-18T23:33:38.422Z,98449.88
2022-08-18T23:36:10.587Z,98446.88
2022-08-18T23:38:42.517Z,98437.56
2022-08-18T23:41:16.276Z,98439.47
2022-08-18T23:43:49.101Z,98439.00
2022-08-18T23:46:28.739Z,98452.47
2022-08-18T23:49:03.686Z,98453.94
2022-08-18T23:51:49.062Z,98448.63
2022-08-18T23:54:23.653Z,98457.81
2022-08-18T23:56:55.405Z,98457.03
2022-08-18T23:59:28.071Z,98448.41
